Time;durP1;ratioP1;P1;durP2;ratioP2;P2;SDS_P1;SDS_P2;PMS_P1;PMS_P2;Temp;Humidity;BMP_temperature;BMP_pressure;BME280_temperature;BME280_humidity;BME280_pressure;Samples;Min_cycle;Max_cycle;Signal;HPM_P1;HPM_P2
2023/03/08 00:00:31;;;;;;;0.10;0.10;;;2.60;99.90;;;;;;6154038;23;20036;-89
2023/03/08 00:02:57;;;;;;;0.10;0.10;;;;;;;;;;6154009;23;20009;-88
2023/03/08 00:05:23;;;;;;;0.10;0.10;;;2.50;99.90;;;;;;6153456;23;20037;-88
2023/03/08 00:07:52;;;;;;;0.03;0.03;;;2.50;99.90;;;;;;6154798;23;20009;-88
2023/03/08 00:10:17;;;;;;;0.10;0.10;;;2.50;99.90;;;;;;6153807;23;20136;-88
2023/03/08 00:12:43;;;;;;;0.10;0.10;;;2.50;99.90;;;;;;6154935;23;20064;-88
2023/03/08 00:15:09;;;;;;;0.10;0.10;;;2.60;99.90;;;;;;6153463;23;20379;-88
2023/03/08 00:17:38;;;;;;;0.10;0.10;;;2.60;99.90;;;;;;6153338;23;20024;-88
2023/03/08 00:20:06;;;;;;;0.10;0.10;;;2.60;99.90;;;;;;6153544;23;20506;-88
2023/03/08 00:22:39;;;;;;;0.05;0.05;;;2.50;99.90;;;;;;6152643;23;20435;-88
2023/03/08 00:25:07;;;;;;;0.10;0.10;;;2.50;99.90;;;;;;6153076;23;20012;-88
2023/03/08 00:27:33;;;;;;;0.10;0.10;;;2.50;99.90;;;;;;6153139;23;20059;-88
2023/03/08 00:29:59;;;;;;;0.10;0.10;;;2.50;99.90;;;;;;6153873;23;20061;-88
2023/03/08 00:32:25;;;;;;;0.10;0.10;;;2.50;99.90;;;;;;6153120;23;20451;-88
2023/03/08 00:34:52;;;;;;;0.10;0.10;;;;;;;;;;6153049;23;20009;-88
2023/03/08 00:37:17;;;;;;;0.10;0.10;;;2.60;99.90;;;;;;6152954;23;20025;-88
2023/03/08 00:39:43;;;;;;;0.10;0.10;;;2.60;99.90;;;;;;6153655;23;20010;-89
2023/03/08 00:42:08;;;;;;;0.10;0.10;;;2.60;99.90;;;;;;6153070;23;20351;-88
2023/03/08 00:44:34;;;;;;;0.10;0.10;;;2.60;99.90;;;;;;6154556;23;20005;-88
2023/03/08 00:46:59;;;;;;;0.10;0.10;;;2.60;99.90;;;;;;6154556;23;20080;-87
2023/03/08 00:49:25;;;;;;;0.20;0.20;;;2.50;99.90;;;;;;6154740;23;20009;-88
2023/03/08 00:51:51;;;;;;;0.05;0.05;;;2.50;99.90;;;;;;6154350;23;20029;-88
2023/03/08 00:54:16;;;;;;;0.10;0.10;;;2.50;99.90;;;;;;6153997;23;20145;-88
2023/03/08 00:56:42;;;;;;;0.10;0.10;;;2.50;99.90;;;;;;6154300;23;20013;-88
2023/03/08 00:59:07;;;;;;;0.10;0.10;;;2.50;99.90;;;;;;6153083;23;20009;-88
2023/03/08 01:01:33;;;;;;;0.10;0.10;;;2.50;99.90;;;;;;6154795;23;20005;-88
2023/03/08 01:03:59;;;;;;;0.10;0.10;;;2.50;99.90;;;;;;6153196;23;20013;-89
2023/03/08 01:06:25;;;;;;;0.10;0.10;;;2.50;99.90;;;;;;6152942;23;20009;-88
2023/03/08 01:08:51;;;;;;;0.10;0.10;;;;;;;;;;6152857;23;20009;-88
2023/03/08 01:11:25;;;;;;;0.10;0.10;;;2.50;99.90;;;;;;6151596;23;20038;-88
2023/03/08 01:13:52;;;;;;;0.00;0.00;;;3.10;99.90;;;;;;6152315;23;20009;-88
2023/03/08 01:16:20;;;;;;;0.00;0.00;;;2.30;99.90;;;;;;6151772;23;20387;-88
2023/03/08 01:18:46;;;;;;;0.00;0.00;;;2.30;99.90;;;;;;6152169;23;20527;-88
2023/03/08 01:21:12;;;;;;;0.05;0.05;;;2.20;99.90;;;;;;6151478;23;20052;-88
2023/03/08 01:23:38;;;;;;;0.00;0.00;;;2.10;99.90;;;;;;6153269;23;20092;-88
2023/03/08 01:26:12;;;;;;;0.10;0.10;;;2.10;99.90;;;;;;6151255;23;20010;-89
2023/03/08 01:28:38;;;;;;;0.08;0.08;;;2.30;99.90;;;;;;6154354;23;20010;-88
2023/03/08 01:31:06;;;;;;;0.10;0.10;;;2.30;99.90;;;;;;6150818;23;20008;-88
2023/03/08 01:33:32;;;;;;;0.00;0.00;;;2.30;99.90;;;;;;6154450;23;20002;-89
2023/03/08 01:35:58;;;;;;;0.10;0.10;;;;;;;;;;6156249;23;20061;-89
2023/03/08 01:38:24;;;;;;;0.10;0.10;;;;;;;;;;6154066;23;20061;-89
2023/03/08 01:41:00;;;;;;;0.00;0.00;;;2.40;99.90;;;;;;6153940;23;20080;-89
2023/03/08 01:43:29;;;;;;;0.00;0.00;;;2.40;99.90;;;;;;6153663;23;20006;-88
2023/03/08 01:46:21;;;;;;;0.00;0.00;;;2.40;99.90;;;;;;6154748;23;20497;-89
2023/03/08 01:48:52;;;;;;;0.00;0.00;;;2.40;99.90;;;;;;6153986;23;20001;-89
2023/03/08 01:51:28;;;;;;;0.10;0.10;;;2.20;99.90;;;;;;6154481;23;20388;-89
2023/03/08 01:53:55;;;;;;;0.08;0.08;;;2.30;99.90;;;;;;6154640;23;20404;-89
2023/03/08 01:56:22;;;;;;;0.00;0.00;;;2.30;99.90;;;;;;6154054;23;20350;-89
2023/03/08 01:58:50;;;;;;;0.05;0.05;;;2.20;99.90;;;;;;6154335;23;20085;-89
2023/03/08 02:01:20;;;;;;;0.05;0.05;;;2.10;99.90;;;;;;6154339;23;20001;-88
2023/03/08 02:03:46;;;;;;;0.00;0.00;;;2.00;99.90;;;;;;6154013;23;20001;-89
2023/03/08 02:06:14;;;;;;;0.10;0.10;;;1.90;99.90;;;;;;6155335;23;20001;-89
2023/03/08 02:08:41;;;;;;;0.03;0.03;;;;;;;;;;6155718;23;20359;-88
2023/03/08 02:11:11;;;;;;;0.10;0.10;;;1.70;99.90;;;;;;6153481;23;20372;-89
2023/03/08 02:13:38;;;;;;;0.00;0.00;;;;;;;;;;6155388;23;20382;-90
2023/03/08 02:16:06;;;;;;;0.10;0.10;;;1.80;99.90;;;;;;6153850;23;20009;-89
2023/03/08 02:18:32;;;;;;;0.10;0.10;;;1.80;99.90;;;;;;6154526;23;20013;-89
2023/03/08 02:20:58;;;;;;;0.10;0.10;;;1.70;99.90;;;;;;6153646;23;20013;-91
2023/03/08 02:23:24;;;;;;;0.10;0.10;;;1.60;99.90;;;;;;6153126;23;20036;-90
2023/03/08 02:25:54;;;;;;;0.10;0.10;;;1.60;99.90;;;;;;6153577;23;20012;-89
2023/03/08 02:28:22;;;;;;;0.10;0.10;;;1.50;99.90;;;;;;6154534;23;20338;-89
2023/03/08 02:30:48;;;;;;;0.10;0.10;;;1.50;99.90;;;;;;6154589;23;20016;-90
2023/03/08 02:33:14;;;;;;;0.10;0.10;;;;;;;;;;6154292;23;20008;-89
2023/03/08 02:35:42;;;;;;;0.10;0.10;;;;;;;;;;6154666;23;20010;-89
2023/03/08 02:38:10;;;;;;;0.00;0.00;;;1.30;99.90;;;;;;6154162;23;20095;-89
2023/03/08 02:40:36;;;;;;;0.10;0.10;;;1.20;99.90;;;;;;6154919;23;20013;-89
2023/03/08 02:43:02;;;;;;;0.10;0.10;;;;;;;;;;6154415;23;20009;-90
2023/03/08 02:45:28;;;;;;;0.03;0.03;;;;;;;;;;6154476;23;20167;-89
2023/03/08 02:47:54;;;;;;;0.10;0.10;;;;;;;;;;6153992;23;20012;-89
2023/03/08 02:50:20;;;;;;;0.10;0.10;;;1.10;99.90;;;;;;6154968;23;20048;-88
2023/03/08 02:52:46;;;;;;;0.10;0.10;;;;;;;;;;6154634;23;20001;-89
2023/03/08 02:55:12;;;;;;;0.10;0.10;;;;;;;;;;6154303;23;20439;-88
2023/03/08 02:57:38;;;;;;;0.10;0.10;;;;;;;;;;6153881;23;20006;-88
2023/03/08 03:00:04;;;;;;;0.10;0.10;;;1.10;99.90;;;;;;6154636;23;20141;-88
2023/03/08 03:02:32;;;;;;;0.03;0.03;;;1.10;99.90;;;;;;6154149;23;20089;-89
2023/03/08 03:04:58;;;;;;;0.10;0.10;;;;;;;;;;6153469;23;20016;-89
2023/03/08 03:07:24;;;;;;;0.00;0.00;;;;;;;;;;6154208;23;20002;-88
2023/03/08 03:09:50;;;;;;;0.10;0.10;;;;;;;;;;6154626;23;20012;-91
2023/03/08 03:12:16;;;;;;;0.10;0.10;;;;;;;;;;6154814;23;20049;-89
2023/03/08 03:14:42;;;;;;;0.10;0.10;;;;;;;;;;6154345;23;20005;-88
2023/03/08 03:17:08;;;;;;;0.10;0.10;;;;;;;;;;6153692;23;20017;-90
2023/03/08 03:19:34;;;;;;;0.10;0.10;;;;;;;;;;6153795;23;20017;-89
2023/03/08 03:22:00;;;;;;;0.10;0.10;;;;;;;;;;6154423;23;20089;-89
2023/03/08 03:24:26;;;;;;;0.00;0.00;;;;;;;;;;6153899;23;20067;-88
2023/03/08 03:26:52;;;;;;;0.10;0.10;;;;;;;;;;6153586;23;19998;-89
2023/03/08 03:29:18;;;;;;;0.10;0.10;;;;;;;;;;6153673;23;20006;-89
2023/03/08 03:31:44;;;;;;;0.10;0.10;;;;;;;;;;6153849;23;19998;-88
2023/03/08 03:34:10;;;;;;;0.10;0.10;;;;;;;;;;6153535;23;20038;-89
2023/03/08 03:36:36;;;;;;;0.10;0.10;;;;;;;;;;6155866;23;20009;-88
2023/03/08 03:39:02;;;;;;;0.10;0.10;;;1.80;99.90;;;;;;6155378;23;20005;-91
2023/03/08 03:41:28;;;;;;;0.10;0.10;;;;;;;;;;6155412;23;20346;-89
2023/03/08 03:43:54;;;;;;;0.10;0.10;;;;;;;;;;6157788;23;20072;-89
2023/03/08 03:46:21;;;;;;;0.05;0.05;;;;;;;;;;6156040;23;20382;-89
2023/03/08 03:48:47;;;;;;;0.08;0.08;;;;;;;;;;6155416;23;20497;-89
2023/03/08 03:51:19;;;;;;;0.10;0.10;;;2.10;99.90;;;;;;6155470;23;20009;-88
2023/03/08 03:53:45;;;;;;;0.00;0.00;;;;;;;;;;6131757;23;20144;-89
2023/03/08 03:56:17;;;;;;;0.00;0.00;;;2.10;99.90;;;;;;6154989;23;20005;-89
2023/03/08 03:58:43;;;;;;;0.10;0.10;;;;;;;;;;6155860;23;20002;-89
2023/03/08 04:01:14;;;;;;;0.00;0.00;;;2.10;99.90;;;;;;6155586;23;20331;-89
2023/03/08 04:03:40;;;;;;;0.08;0.08;;;;;;;;;;6155839;23;20011;-89
2023/03/08 04:06:09;;;;;;;0.10;0.10;;;2.00;99.90;;;;;;6155035;23;20005;-90
2023/03/08 04:08:40;;;;;;;0.10;0.10;;;2.00;99.90;;;;;;6155529;23;20029;-88
2023/03/08 04:11:07;;;;;;;0.03;0.03;;;;;;;;;;6155218;23;20088;-88
2023/03/08 04:13:33;;;;;;;0.00;0.00;;;;;;;;;;6156088;23;20005;-89
2023/03/08 04:15:58;;;;;;;0.10;0.10;;;;;;;;;;6154724;23;20006;-90
2023/03/08 04:18:24;;;;;;;0.10;0.10;;;;;;;;;;6155710;23;20018;-89
2023/03/08 04:20:50;;;;;;;0.00;0.00;;;;;;;;;;6155273;23;20013;-88
2023/03/08 04:23:16;;;;;;;0.10;0.10;;;;;;;;;;6155938;23;20005;-88
2023/03/08 04:25:42;;;;;;;0.10;0.10;;;;;;;;;;6154666;23;20523;-89
2023/03/08 04:28:08;;;;;;;0.00;0.00;;;;;;;;;;6155826;23;20015;-90
2023/03/08 04:30:34;;;;;;;0.00;0.00;;;;;;;;;;6155718;23;20000;-88
2023/03/08 04:33:00;;;;;;;0.00;0.00;;;;;;;;;;6155284;23;20060;-89
2023/03/08 04:35:26;;;;;;;0.05;0.05;;;;;;;;;;6154950;23;20100;-89
2023/03/08 04:37:52;;;;;;;0.10;0.10;;;;;;;;;;6155279;23;20009;-90
2023/03/08 04:40:18;;;;;;;0.10;0.10;;;;;;;;;;6155131;23;20009;-89
2023/03/08 04:42:44;;;;;;;0.10;0.10;;;;;;;;;;6155715;23;20097;-90
2023/03/08 04:45:10;;;;;;;0.10;0.10;;;;;;;;;;6154727;23;20009;-88
2023/03/08 04:47:36;;;;;;;0.10;0.10;;;;;;;;;;6154922;23;20005;-90
2023/03/08 04:50:02;;;;;;;0.00;0.00;;;;;;;;;;6155140;23;20008;-89
2023/03/08 04:52:28;;;;;;;0.10;0.10;;;;;;;;;;6155109;23;20014;-89
2023/03/08 04:54:54;;;;;;;0.10;0.10;;;;;;;;;;6154754;23;20457;-89
2023/03/08 04:57:20;;;;;;;0.10;0.10;;;;;;;;;;6155325;23;20432;-89
2023/03/08 04:59:46;;;;;;;0.05;0.05;;;;;;;;;;6155092;23;20027;-89
2023/03/08 05:02:12;;;;;;;0.10;0.10;;;;;;;;;;6155410;23;20041;-88
2023/03/08 05:04:38;;;;;;;0.10;0.10;;;;;;;;;;6155541;23;20010;-90
2023/03/08 05:07:04;;;;;;;0.10;0.10;;;;;;;;;;6154857;23;20013;-88
2023/03/08 05:09:30;;;;;;;0.00;0.00;;;;;;;;;;6155116;23;20362;-89
2023/03/08 05:11:58;;;;;;;0.10;0.10;;;;;;;;;;6154685;23;20009;-89
2023/03/08 05:14:24;;;;;;;0.10;0.10;;;;;;;;;;6155607;23;20497;-89
2023/03/08 05:16:50;;;;;;;0.10;0.10;;;;;;;;;;6158619;23;20010;-90
2023/03/08 05:19:16;;;;;;;0.10;0.10;;;;;;;;;;6159649;23;20438;-89
2023/03/08 05:21:41;;;;;;;0.10;0.10;;;1.80;99.90;;;;;;6185862;23;20011;-89
2023/03/08 05:24:07;;;;;;;0.03;0.03;;;;;;;;;;6159072;23;20465;-90
2023/03/08 05:26:33;;;;;;;0.10;0.10;;;1.90;99.90;;;;;;6158626;23;20005;-89
2023/03/08 05:29:02;;;;;;;0.10;0.10;;;2.00;99.90;;;;;;6159674;23;20006;-88
2023/03/08 05:31:28;;;;;;;0.10;0.10;;;2.00;99.90;;;;;;6159923;23;20012;-89
2023/03/08 05:33:53;;;;;;;0.10;0.10;;;2.00;99.90;;;;;;6159893;23;20001;-89
2023/03/08 05:36:19;;;;;;;0.03;0.03;;;1.90;99.90;;;;;;6159424;23;20088;-89
2023/03/08 05:38:44;;;;;;;0.08;0.08;;;2.00;99.90;;;;;;6159920;23;20009;-90
2023/03/08 05:41:15;;;;;;;0.10;0.10;;;1.90;99.90;;;;;;6158968;23;20012;-89
2023/03/08 05:43:40;;;;;;;0.10;0.10;;;1.90;99.90;;;;;;6159946;23;20005;-89
2023/03/08 05:46:10;;;;;;;0.10;0.10;;;1.80;99.90;;;;;;6159742;23;20009;-89
2023/03/08 05:48:36;;;;;;;0.10;0.10;;;1.80;99.90;;;;;;6159515;23;20001;-89
2023/03/08 05:51:10;;;;;;;0.10;0.10;;;1.80;99.90;;;;;;6160354;23;20008;-89
2023/03/08 05:53:36;;;;;;;0.10;0.10;;;1.80;99.90;;;;;;6160369;23;20012;-89
2023/03/08 05:56:14;;;;;;;0.10;0.10;;;1.70;99.90;;;;;;6160161;23;20119;-90
2023/03/08 05:58:39;;;;;;;0.10;0.10;;;1.70;99.90;;;;;;6159584;23;20083;-90
2023/03/08 06:01:23;;;;;;;0.10;0.10;;;1.70;99.90;;;;;;6159445;23;20055;-89
2023/03/08 06:03:50;;;;;;;0.05;0.05;;;1.80;99.90;;;;;;6160229;23;20005;-88
2023/03/08 06:06:17;;;;;;;0.10;0.10;;;1.90;99.90;;;;;;6159898;23;20422;-88
2023/03/08 06:08:43;;;;;;;0.10;0.10;;;1.80;99.90;;;;;;6160030;23;20005;-89
2023/03/08 06:11:09;;;;;;;0.10;0.10;;;1.80;99.90;;;;;;6159200;23;20024;-89
2023/03/08 06:13:35;;;;;;;0.10;0.10;;;;;;;;;;6160104;23;19997;-90
2023/03/08 06:16:01;;;;;;;0.10;0.10;;;1.80;99.90;;;;;;6159821;23;20044;-89
2023/03/08 06:18:27;;;;;;;0.10;0.10;;;;;;;;;;6186048;23;20431;-89
2023/03/08 06:20:58;;;;;;;0.00;0.00;;;1.80;99.90;;;;;;6159691;23;20009;-89
2023/03/08 06:23:25;;;;;;;0.10;0.10;;;1.80;99.90;;;;;;6185341;23;20005;-90
2023/03/08 06:25:51;;;;;;;0.00;0.00;;;1.80;99.90;;;;;;6158704;23;20012;-89
2023/03/08 06:28:17;;;;;;;0.00;0.00;;;;;;;;;;6159539;23;20028;-89
2023/03/08 06:30:43;;;;;;;0.10;0.10;;;1.80;99.90;;;;;;6160377;23;20004;-89
2023/03/08 06:33:08;;;;;;;0.10;0.10;;;1.80;99.90;;;;;;6159732;23;20008;-90
2023/03/08 06:35:34;;;;;;;0.00;0.00;;;1.80;99.90;;;;;;6159593;23;20008;-89
2023/03/08 06:37:59;;;;;;;0.00;0.00;;;1.90;99.90;;;;;;6159580;23;20040;-90
2023/03/08 06:40:25;;;;;;;0.10;0.10;;;1.90;99.90;;;;;;6160219;23;20005;-89
2023/03/08 06:42:50;;;;;;;0.00;0.00;;;1.80;99.90;;;;;;6159881;23;20009;-88
2023/03/08 06:45:16;;;;;;;0.10;0.10;;;1.90;99.90;;;;;;6159596;23;20032;-89
2023/03/08 06:47:42;;;;;;;0.10;0.10;;;1.90;99.90;;;;;;6159253;23;20492;-89
2023/03/08 06:50:08;;;;;;;0.10;0.10;;;1.90;99.90;;;;;;6159155;23;20087;-89
2023/03/08 06:52:36;;;;;;;0.10;0.10;;;1.90;99.90;;;;;;6159269;23;20005;-90
2023/03/08 06:55:03;;;;;;;0.00;0.00;;;2.00;99.90;;;;;;6158938;23;20005;-89
2023/03/08 06:57:28;;;;;;;0.00;0.00;;;2.10;99.90;;;;;;6159161;23;20005;-89
2023/03/08 06:59:54;;;;;;;0.00;0.00;;;2.10;99.90;;;;;;6159077;23;20005;-89
2023/03/08 07:02:19;;;;;;;0.10;0.10;;;2.10;99.90;;;;;;6159967;23;20092;-89
2023/03/08 07:04:45;;;;;;;0.10;0.10;;;2.10;99.90;;;;;;6159616;23;20001;-89
2023/03/08 07:07:10;;;;;;;0.10;0.10;;;2.20;99.90;;;;;;6159795;23;19997;-89
2023/03/08 07:09:36;;;;;;;0.10;0.10;;;2.20;99.90;;;;;;6158174;23;20024;-88
2023/03/08 07:12:01;;;;;;;0.00;0.00;;;2.30;99.90;;;;;;6185372;23;20584;-89
2023/03/08 07:14:27;;;;;;;0.00;0.00;;;2.40;99.90;;;;;;6160011;23;20015;-88
2023/03/08 07:16:52;;;;;;;0.08;0.08;;;2.40;99.90;;;;;;6159178;23;20048;-89
2023/03/08 07:19:18;;;;;;;0.00;0.00;;;2.50;99.90;;;;;;6158809;23;20430;-89
2023/03/08 07:21:43;;;;;;;0.10;0.10;;;2.50;99.90;;;;;;6158747;23;20016;-89
2023/03/08 07:24:10;;;;;;;0.10;0.10;;;2.40;99.90;;;;;;6159381;23;20013;-89
2023/03/08 07:26:35;;;;;;;0.10;0.10;;;2.50;99.90;;;;;;6158442;23;20346;-89
2023/03/08 07:29:01;;;;;;;0.10;0.10;;;2.60;99.90;;;;;;6185586;23;20064;-89
2023/03/08 07:31:28;;;;;;;0.10;0.10;;;2.70;99.90;;;;;;6159014;23;20051;-90
2023/03/08 15:57:05;;;;;;;0.10;0.10;;;3.60;99.90;;;;;;6400179;22;20006;-91
2023/03/08 16:07:18;;;;;;;0.10;0.10;;;3.80;99.90;;;;;;6400001;22;20003;-93
2023/03/08 16:09:45;;;;;;;0.10;0.10;;;3.70;99.90;;;;;;6371434;22;19990;-93
2023/03/08 16:12:14;;;;;;;0.10;0.10;;;3.80;99.90;;;;;;6371319;22;20046;-94
2023/03/08 17:09:03;;;;;;;0.10;0.10;;;;;;;;;;6428294;22;20017;-88
2023/03/08 17:11:34;;;;;;;0.10;0.10;;;3.00;99.90;;;;;;6412267;22;20002;-87
2023/03/08 17:14:02;;;;;;;0.20;0.20;;;3.00;99.90;;;;;;6391945;22;20374;-87
2023/03/08 17:16:30;;;;;;;0.10;0.10;;;3.00;99.90;;;;;;6392450;22;20364;-87
2023/03/08 17:18:57;;;;;;;0.10;0.10;;;3.00;99.90;;;;;;6393102;22;20430;-88
2023/03/08 17:21:50;;;;;;;0.10;0.10;;;3.10;99.90;;;;;;6395626;22;20008;-88
2023/03/08 17:24:16;;;;;;;0.10;0.10;;;3.20;99.90;;;;;;6388610;22;20068;-89
2023/03/08 17:26:45;;;;;;;0.10;0.10;;;3.00;99.90;;;;;;6392547;22;20006;-87
2023/03/08 17:29:11;;;;;;;0.08;0.08;;;3.00;99.90;;;;;;6367028;22;20006;-87
2023/03/08 17:31:37;;;;;;;0.10;0.10;;;3.00;99.90;;;;;;6394314;22;20006;-89
2023/03/08 17:34:03;;;;;;;0.10;0.10;;;3.00;99.90;;;;;;6396532;22;20053;-88
2023/03/08 17:36:59;;;;;;;0.10;0.10;;;3.10;99.90;;;;;;6395037;22;20398;-88
2023/03/08 17:39:25;;;;;;;0.10;0.10;;;;;;;;;;6395281;22;20101;-89
2023/03/08 17:41:51;;;;;;;0.10;0.10;;;;;;;;;;6397287;22;20006;-88
2023/03/08 17:44:17;;;;;;;0.10;0.10;;;;;;;;;;6395943;22;20051;-88
2023/03/08 17:46:51;;;;;;;0.00;0.00;;;3.10;99.90;;;;;;6393470;22;20054;-88
2023/03/08 17:49:39;;;;;;;0.10;0.10;;;3.00;99.90;;;;;;6397132;22;19998;-88
2023/03/08 19:43:25;;;;;;;0.10;0.10;;;;;;;;;;6408356;22;20018;-86
2023/03/08 19:45:51;;;;;;;0.10;0.10;;;;;;;;;;6369473;22;20002;-86
2023/03/08 19:48:17;;;;;;;0.10;0.10;;;;;;;;;;6395099;22;20001;-86
2023/03/08 19:50:45;;;;;;;0.10;0.10;;;2.80;99.90;;;;;;6366529;22;20299;-86
2023/03/08 19:53:11;;;;;;;0.10;0.10;;;2.80;99.90;;;;;;6336772;22;19994;-85
2023/03/08 19:55:36;;;;;;;0.10;0.10;;;2.90;99.90;;;;;;6347910;22;20086;-90
2023/03/08 19:58:02;;;;;;;0.10;0.10;;;2.80;99.90;;;;;;6351639;22;20334;-90
2023/03/08 20:00:27;;;;;;;0.10;0.10;;;2.90;99.90;;;;;;6350455;22;20356;-91
2023/03/08 20:02:53;;;;;;;0.10;0.10;;;2.90;99.90;;;;;;6349613;22;20442;-92
2023/03/08 20:05:18;;;;;;;0.10;0.10;;;2.90;99.90;;;;;;6347168;22;19998;-92
2023/03/08 20:07:44;;;;;;;0.10;0.10;;;2.90;99.90;;;;;;6350146;22;20035;-92
2023/03/08 20:10:15;;;;;;;0.10;0.10;;;3.00;99.90;;;;;;6349475;22;19998;-92
2023/03/08 20:12:40;;;;;;;0.10;0.10;;;3.00;99.90;;;;;;6350407;22;20025;-92
2023/03/08 20:15:06;;;;;;;0.10;0.10;;;3.50;99.90;;;;;;6378823;22;19999;-91
2023/03/08 20:18:29;;;;;;;0.10;0.10;;;3.20;99.90;;;;;;6351434;22;20164;-91
2023/03/08 20:21:02;;;;;;;0.10;0.10;;;3.00;99.90;;;;;;6353176;22;20014;-92
2023/03/08 20:23:30;;;;;;;0.08;0.08;;;;;;;;;;6351689;22;20010;-91
2023/03/08 20:25:56;;;;;;;0.10;0.10;;;;;;;;;;6348933;22;20006;-92
2023/03/08 20:28:22;;;;;;;0.10;0.10;;;;;;;;;;6348694;22;20003;-92
2023/03/08 20:30:48;;;;;;;0.10;0.10;;;;;;;;;;6376285;22;20070;-92
2023/03/08 20:33:14;;;;;;;0.10;0.10;;;2.60;99.90;;;;;;6350624;22;19998;-92
2023/03/08 20:35:40;;;;;;;0.10;0.10;;;2.50;99.90;;;;;;6375737;22;20026;-92
2023/03/08 20:38:06;;;;;;;0.00;0.00;;;;;;;;;;6352902;22;20024;-92
2023/03/08 20:40:32;;;;;;;0.10;0.10;;;;;;;;;;6349926;22;20135;-91
2023/03/08 20:42:59;;;;;;;0.10;0.10;;;;;;;;;;6356792;22;20006;-91
2023/03/08 20:45:25;;;;;;;0.10;0.10;;;;;;;;;;6370244;22;20106;-91
2023/03/08 20:47:56;;;;;;;0.10;0.10;;;;;;;;;;6371341;22;20037;-91
2023/03/08 20:50:23;;;;;;;0.10;0.10;;;2.90;99.90;;;;;;6372974;22;19995;-92
2023/03/08 20:52:49;;;;;;;0.10;0.10;;;2.80;99.90;;;;;;6346598;22;20007;-92
2023/03/08 20:55:15;;;;;;;0.10;0.10;;;2.80;99.90;;;;;;6372972;22;20338;-92
2023/03/08 20:57:41;;;;;;;0.10;0.10;;;2.70;99.90;;;;;;6374846;22;20009;-90
2023/03/08 21:00:08;;;;;;;0.00;0.00;;;2.80;99.90;;;;;;6373489;22;20006;-92
2023/03/08 21:02:34;;;;;;;0.10;0.10;;;2.80;99.90;;;;;;6374173;22;20006;-92
2023/03/08 21:05:00;;;;;;;0.10;0.10;;;2.40;99.90;;;;;;6373851;22;20006;-91
2023/03/08 21:07:25;;;;;;;0.10;0.10;;;2.90;99.90;;;;;;6373693;22;20411;-91
2023/03/08 21:09:51;;;;;;;0.10;0.10;;;3.00;99.90;;;;;;6372801;22;20002;-92
2023/03/08 21:12:17;;;;;;;0.10;0.10;;;2.80;99.90;;;;;;6373275;22;20074;-91
2023/03/08 21:14:42;;;;;;;0.10;0.10;;;2.80;99.90;;;;;;6373188;22;20434;-92
2023/03/08 21:17:08;;;;;;;0.10;0.10;;;2.80;99.90;;;;;;6373675;22;20030;-92
2023/03/08 21:19:34;;;;;;;0.10;0.10;;;;;;;;;;6372829;22;19998;-90
2023/03/08 21:22:02;;;;;;;0.10;0.10;;;;;;;;;;6372817;22;20327;-91
2023/03/08 21:24:28;;;;;;;0.10;0.10;;;;;;;;;;6374559;22;20014;-91
2023/03/08 21:27:02;;;;;;;0.10;0.10;;;;;;;;;;6373445;22;20010;-92
2023/03/08 21:29:28;;;;;;;0.10;0.10;;;;;;;;;;6372240;22;20089;-88
2023/03/08 21:35:39;;;;;;;0.10;0.10;;;2.70;99.90;;;;;;6366329;22;20495;-88
2023/03/08 21:38:06;;;;;;;0.10;0.10;;;;;;;;;;6366569;22;20083;-88
2023/03/08 21:40:36;;;;;;;0.10;0.10;;;3.80;99.90;;;;;;6365099;22;20340;-88
2023/03/08 21:43:01;;;;;;;0.10;0.10;;;2.80;99.90;;;;;;6365519;22;20011;-88
2023/03/08 21:45:27;;;;;;;0.10;0.10;;;2.80;99.90;;;;;;6365339;22;20052;-88
2023/03/08 21:47:54;;;;;;;0.10;0.10;;;2.80;99.90;;;;;;6365852;22;20064;-88
2023/03/08 21:50:20;;;;;;;0.10;0.10;;;2.90;99.90;;;;;;6368243;22;20360;-88
2023/03/08 21:52:45;;;;;;;0.10;0.10;;;2.90;99.90;;;;;;6364828;22;20349;-88
2023/03/08 21:55:11;;;;;;;0.10;0.10;;;2.90;99.90;;;;;;6365502;22;20006;-88
2023/03/08 21:57:36;;;;;;;0.10;0.10;;;2.90;99.90;;;;;;6365297;22;20010;-89
2023/03/08 22:00:03;;;;;;;0.10;0.10;;;2.90;99.90;;;;;;6367662;22;20045;-89
2023/03/08 22:02:28;;;;;;;0.00;0.00;;;3.00;99.90;;;;;;6364415;22;20002;-88
2023/03/08 22:04:54;;;;;;;0.05;0.05;;;2.90;99.90;;;;;;6366402;22;20006;-88
2023/03/08 22:07:19;;;;;;;0.10;0.10;;;2.80;99.90;;;;;;6365394;22;20443;-89
2023/03/08 22:09:44;;;;;;;0.10;0.10;;;2.70;99.90;;;;;;6367809;22;19998;-89
2023/03/08 22:12:10;;;;;;;0.10;0.10;;;2.70;99.90;;;;;;6363580;22;20005;-88
2023/03/08 22:14:35;;;;;;;0.00;0.00;;;2.80;99.90;;;;;;6366027;22;19998;-88
2023/03/08 22:17:02;;;;;;;0.10;0.10;;;2.80;99.90;;;;;;6365944;22;20002;-88
2023/03/08 22:19:27;;;;;;;0.10;0.10;;;2.80;99.90;;;;;;6365405;22;20021;-88
2023/03/08 22:21:53;;;;;;;0.10;0.10;;;2.80;99.90;;;;;;6365749;22;20431;-88
2023/03/08 22:24:18;;;;;;;0.10;0.10;;;2.90;99.90;;;;;;6365696;22;20010;-88
2023/03/08 22:26:44;;;;;;;0.10;0.10;;;3.00;99.90;;;;;;6365739;22;20009;-89
2023/03/08 22:29:09;;;;;;;0.10;0.10;;;3.00;99.90;;;;;;6366428;22;20002;-88
2023/03/08 22:31:38;;;;;;;0.10;0.10;;;3.00;99.90;;;;;;6365791;22;20447;-88
2023/03/08 22:34:06;;;;;;;0.10;0.10;;;2.80;99.90;;;;;;6366022;22;20003;-89
2023/03/08 22:36:32;;;;;;;0.10;0.10;;;;;;;;;;6367155;22;20013;-88
2023/03/08 22:38:57;;;;;;;0.03;0.03;;;2.80;99.90;;;;;;6367943;22;20026;-88
2023/03/08 22:41:25;;;;;;;0.10;0.10;;;2.70;99.90;;;;;;6366911;22;20391;-88
2023/03/08 22:43:51;;;;;;;0.10;0.10;;;2.60;99.90;;;;;;6368162;22;20010;-88
2023/03/08 22:46:25;;;;;;;0.00;0.00;;;2.70;99.90;;;;;;6368586;22;20010;-88
2023/03/08 22:48:51;;;;;;;0.10;0.10;;;2.70;99.90;;;;;;6368351;22;20002;-88
2023/03/08 22:51:19;;;;;;;0.00;0.00;;;2.70;99.90;;;;;;6366671;22;20022;-88
2023/03/08 22:53:45;;;;;;;0.10;0.10;;;2.70;99.90;;;;;;6341155;22;20085;-88
2023/03/08 22:56:25;;;;;;;0.10;0.10;;;2.80;99.90;;;;;;6368345;22;20026;-88
2023/03/08 22:58:51;;;;;;;0.10;0.10;;;2.70;99.90;;;;;;6371467;22;20429;-88
2023/03/08 23:01:20;;;;;;;0.10;0.10;;;2.80;99.90;;;;;;6368910;22;20019;-89
2023/03/08 23:03:48;;;;;;;0.03;0.03;;;2.70;99.90;;;;;;6368790;22;20003;-88
2023/03/08 23:06:14;;;;;;;0.13;0.13;;;;;;;;;;6368350;22;20002;-88
2023/03/08 23:08:40;;;;;;;0.00;0.00;;;;;;;;;;6368855;22;20002;-88
2023/03/08 23:11:06;;;;;;;0.10;0.10;;;2.70;99.90;;;;;;6367878;22;20002;-88
2023/03/08 23:13:31;;;;;;;0.00;0.00;;;2.70;99.90;;;;;;6366632;22;20227;-88
2023/03/08 23:15:57;;;;;;;0.10;0.10;;;;;;;;;;6367008;22;20377;-88
2023/03/08 23:18:23;;;;;;;0.10;0.10;;;2.80;99.90;;;;;;6366848;22;20006;-88
2023/03/08 23:20:49;;;;;;;0.10;0.10;;;2.70;99.90;;;;;;6367028;22;20002;-88
2023/03/08 23:23:14;;;;;;;0.10;0.10;;;2.70;99.90;;;;;;6366409;22;20007;-88
2023/03/08 23:25:42;;;;;;;0.10;0.10;;;2.60;99.90;;;;;;6366081;22;20346;-88
2023/03/08 23:28:08;;;;;;;0.00;0.00;;;2.40;99.90;;;;;;6367016;22;20430;-88
2023/03/08 23:30:34;;;;;;;0.10;0.10;;;2.40;99.90;;;;;;6366991;22;19998;-88
2023/03/08 23:32:59;;;;;;;0.13;0.13;;;2.30;99.90;;;;;;6366973;22;19994;-88
2023/03/08 23:35:25;;;;;;;0.10;0.10;;;2.40;99.90;;;;;;6366726;22;19994;-88
2023/03/08 23:37:50;;;;;;;0.10;0.10;;;2.40;99.90;;;;;;6367001;22;20002;-88
2023/03/08 23:40:16;;;;;;;0.00;0.00;;;2.50;99.90;;;;;;6367074;22;20051;-88
2023/03/08 23:42:41;;;;;;;0.03;0.03;;;2.50;99.90;;;;;;6367152;22;20049;-88
2023/03/08 23:45:08;;;;;;;0.10;0.10;;;3.30;99.90;;;;;;6368152;22;20002;-88
2023/03/08 23:47:33;;;;;;;0.08;0.08;;;2.50;99.90;;;;;;6367218;22;20010;-88
2023/03/08 23:49:59;;;;;;;0.10;0.10;;;2.50;99.90;;;;;;6367463;22;19995;-89
2023/03/08 23:52:25;;;;;;;0.10;0.10;;;2.60;99.90;;;;;;6365878;22;20470;-89
2023/03/08 23:54:51;;;;;;;0.10;0.10;;;;;;;;;;6366807;22;20320;-89
2023/03/08 23:57:16;;;;;;;0.10;0.10;;;2.60;99.90;;;;;;6365650;22;20081;-88
2023/03/08 23:59:42;;;;;;;0.10;0.10;;;2.60;99.90;;;;;;6367247;22;20041;-88
